createdAt,value
2023-07-03T00:00:27.408Z,16.52
2023-07-03T00:01:02.203Z,9.00
2023-07-03T00:01:34.490Z,23.58
2023-07-03T00:02:07.265Z,7.75
2023-07-03T00:02:39.851Z,11.85
2023-07-03T00:03:15.423Z,8.40
2023-07-03T00:03:47.720Z,10.20
2023-07-03T00:04:20.189Z,9.80
2023-07-03T00:04:55.186Z,8.18
2023-07-03T00:05:27.622Z,8.10
2023-07-03T00:05:59.969Z,9.15
2023-07-03T00:06:57.728Z,12.55
2023-07-03T00:07:30.038Z,11.07
2023-07-03T00:08:04.842Z,16.77
2023-07-03T00:08:50.367Z,11.48
2023-07-03T00:09:27.784Z,11.02
2023-07-03T00:10:15.890Z,14.63
2023-07-03T00:10:50.729Z,10.57
2023-07-03T00:11:43.821Z,11.88
2023-07-03T00:12:16.046Z,13.25
2023-07-03T00:12:51.543Z,11.95
2023-07-03T00:13:23.760Z,9.40
2023-07-03T00:13:56.126Z,14.43
2023-07-03T00:14:30.960Z,11.82
2023-07-03T00:15:03.573Z,14.15
2023-07-03T00:15:35.863Z,15.90
2023-07-03T00:16:10.847Z,10.73
2023-07-03T00:16:43.192Z,14.90
2023-07-03T00:17:15.436Z,14.60
2023-07-03T00:17:50.238Z,10.98
2023-07-03T00:18:22.593Z,11.88
2023-07-03T00:18:54.887Z,7.35
2023-07-03T00:19:28.067Z,13.63
2023-07-03T00:20:02.996Z,17.90
2023-07-03T00:20:35.270Z,10.50
2023-07-03T00:21:07.501Z,22.13
2023-07-03T00:21:44.695Z,15.13
2023-07-03T00:22:17.313Z,12.18
2023-07-03T00:22:49.773Z,13.15
2023-07-03T00:23:25.128Z,13.85
2023-07-03T00:23:57.354Z,13.80
2023-07-03T00:24:32.923Z,14.55
2023-07-03T00:25:09.002Z,19.52
2023-07-03T00:25:42.303Z,14.63
2023-07-03T00:26:14.739Z,14.00
2023-07-03T00:26:47.007Z,12.40
2023-07-03T00:27:21.820Z,18.05
2023-07-03T00:27:55.282Z,21.33
2023-07-03T00:28:27.569Z,23.17
2023-07-03T00:29:02.378Z,8.73
2023-07-03T00:29:36.138Z,12.52
2023-07-03T00:30:09.841Z,14.32
2023-07-03T00:30:42.956Z,12.52
2023-07-03T00:31:17.786Z,10.13
2023-07-03T00:31:50.144Z,10.95
2023-07-03T00:32:22.457Z,13.80
2023-07-03T00:32:57.319Z,11.20
2023-07-03T00:33:29.653Z,10.63
2023-07-03T00:34:02.108Z,10.10
2023-07-03T00:34:37.431Z,19.35
2023-07-03T00:35:10.483Z,11.88
2023-07-03T00:35:42.732Z,20.88
2023-07-03T00:36:18.861Z,11.68
2023-07-03T00:36:51.301Z,9.73
2023-07-03T00:37:23.672Z,23.45
2023-07-03T00:37:58.470Z,21.40
2023-07-03T00:38:30.842Z,14.70
2023-07-03T00:39:03.120Z,11.18
2023-07-03T00:39:40.537Z,17.92
2023-07-03T00:40:14.080Z,12.00
2023-07-03T00:40:46.287Z,12.88
2023-07-03T00:41:21.475Z,8.32
2023-07-03T00:41:53.826Z,10.82
2023-07-03T00:42:26.782Z,19.75
2023-07-03T00:43:02.142Z,15.55
2023-07-03T00:43:34.974Z,8.93
2023-07-03T00:44:10.490Z,10.90
2023-07-03T00:44:45.826Z,16.92
2023-07-03T00:45:18.172Z,8.52
2023-07-03T00:45:50.582Z,9.80
2023-07-03T00:46:25.904Z,20.95
2023-07-03T00:46:58.200Z,15.93
2023-07-03T00:47:30.654Z,13.50
2023-07-03T00:48:05.542Z,13.27
2023-07-03T00:48:39.880Z,15.57
2023-07-03T00:49:12.667Z,18.08
2023-07-03T00:49:47.539Z,18.20
2023-07-03T00:50:20.399Z,14.02
2023-07-03T00:50:55.364Z,12.05
2023-07-03T00:51:27.772Z,15.77
2023-07-03T00:52:02.244Z,12.45
2023-07-03T00:52:35.135Z,12.88
2023-07-03T00:53:14.108Z,14.18
2023-07-03T00:53:48.056Z,9.93
2023-07-03T00:54:20.362Z,15.18
2023-07-03T00:54:59.238Z,24.63
2023-07-03T00:55:32.731Z,11.60
2023-07-03T00:56:05.629Z,25.73
2023-07-03T00:56:40.459Z,8.25
2023-07-03T00:57:14.667Z,21.73
2023-07-03T00:57:46.958Z,15.60
2023-07-03T00:58:21.802Z,13.55
2023-07-03T00:58:54.272Z,10.65
2023-07-03T00:59:26.968Z,14.10
2023-07-03T01:00:03.878Z,12.45
2023-07-03T01:00:42.708Z,12.38
2023-07-03T01:01:24.219Z,43.10
2023-07-03T01:02:09.040Z,19.05
2023-07-03T01:02:48.033Z,10.70
2023-07-03T01:03:28.053Z,17.50
2023-07-03T01:04:08.061Z,15.50
2023-07-03T01:04:46.351Z,14.27
2023-07-03T01:05:26.725Z,11.40
2023-07-03T01:06:03.120Z,17.08
2023-07-03T01:06:41.264Z,13.27
2023-07-03T01:07:15.979Z,16.92
2023-07-03T01:07:51.263Z,21.83
2023-07-03T01:08:24.236Z,24.33
2023-07-03T01:09:01.438Z,18.48
2023-07-03T01:09:37.535Z,17.98
2023-07-03T01:10:19.549Z,11.73
2023-07-03T01:10:51.992Z,14.55
2023-07-03T01:11:24.863Z,19.13
2023-07-03T01:12:01.535Z,15.77
2023-07-03T01:12:40.213Z,12.48
2023-07-03T01:17:03.307Z,20.40
2023-07-03T01:17:52.702Z,23.88
2023-07-03T01:18:39.134Z,27.92
2023-07-03T01:19:15.838Z,9.70
2023-07-03T01:19:49.870Z,9.73
2023-07-03T01:20:27.018Z,23.65
2023-07-03T01:21:05.052Z,13.73
2023-07-03T01:21:44.258Z,14.43
2023-07-03T01:22:26.154Z,15.18
2023-07-03T01:23:05.475Z,13.68
2023-07-03T01:23:43.605Z,14.55
2023-07-03T01:24:27.880Z,12.73
2023-07-03T01:25:01.844Z,14.88
2023-07-03T01:25:37.831Z,8.20
2023-07-03T01:26:16.179Z,14.27
2023-07-03T01:26:49.030Z,13.93
2023-07-03T01:27:40.605Z,11.75
2023-07-03T01:28:15.881Z,20.10
2023-07-03T01:28:53.490Z,12.07
2023-07-03T01:29:26.091Z,16.17
2023-07-03T01:30:02.815Z,12.20
2023-07-03T01:30:36.155Z,7.78
2023-07-03T01:31:09.279Z,16.08
2023-07-03T01:31:45.830Z,8.43
2023-07-03T01:32:21.130Z,13.48
2023-07-03T01:32:55.698Z,14.57
2023-07-03T01:33:34.766Z,13.43
2023-07-03T01:34:10.294Z,10.52
2023-07-03T01:34:46.982Z,13.15
2023-07-03T01:35:23.365Z,16.58
2023-07-03T01:35:55.950Z,19.13
2023-07-03T01:36:29.727Z,15.38
2023-07-03T01:37:07.723Z,12.70
2023-07-03T01:37:43.699Z,11.65
2023-07-03T01:38:19.386Z,15.23
2023-07-03T01:38:55.696Z,11.40
2023-07-03T01:39:31.365Z,9.90
2023-07-03T01:40:05.044Z,12.18
2023-07-03T01:40:41.619Z,13.15
2023-07-03T01:41:16.840Z,13.70
2023-07-03T01:41:49.900Z,11.57
2023-07-03T01:42:25.776Z,14.38
2023-07-03T01:42:59.154Z,15.40
2023-07-03T01:43:31.949Z,15.32
2023-07-03T01:44:07.155Z,13.63
2023-07-03T01:44:39.553Z,14.20
2023-07-03T01:45:12.097Z,9.48
2023-07-03T01:45:50.148Z,14.82
2023-07-03T01:46:26.180Z,15.50
2023-07-03T01:47:05.003Z,13.82
2023-07-03T01:47:40.566Z,12.60
2023-07-03T01:48:13.150Z,9.30
2023-07-03T01:48:45.476Z,7.78
2023-07-03T01:49:20.891Z,13.77
2023-07-03T01:49:53.089Z,13.98
2023-07-03T01:50:30.116Z,18.08
2023-07-03T01:51:07.574Z,14.57
2023-07-03T01:51:49.162Z,27.10
2023-07-03T01:52:28.981Z,19.48
2023-07-03T01:53:06.205Z,10.27
2023-07-03T01:53:44.652Z,20.58
2023-07-03T01:54:27.824Z,20.42
2023-07-03T01:55:09.383Z,31.92
2023-07-03T01:55:46.527Z,22.67
2023-07-03T01:56:27.289Z,27.33
2023-07-03T01:57:02.566Z,26.17
2023-07-03T01:57:43.389Z,25.50
2023-07-03T01:58:31.138Z,22.17
2023-07-03T01:59:08.979Z,18.88
2023-07-03T01:59:42.517Z,24.77
2023-07-03T02:00:29.882Z,31.58
2023-07-03T02:01:06.483Z,15.93
2023-07-03T02:01:48.272Z,9.60
2023-07-03T02:02:27.162Z,19.58
2023-07-03T02:03:07.291Z,11.93
2023-07-03T02:03:45.050Z,16.23
2023-07-03T02:04:27.429Z,14.55
2023-07-03T02:05:05.882Z,13.05
2023-07-03T02:05:40.510Z,16.80
2023-07-03T02:06:22.678Z,10.77
2023-07-03T02:06:57.164Z,14.35
2023-07-03T02:07:30.982Z,9.55
2023-07-03T02:08:07.474Z,16.65
2023-07-03T02:08:40.228Z,11.38
2023-07-03T02:09:13.535Z,12.93
2023-07-03T02:09:53.031Z,13.13
2023-07-03T02:10:28.146Z,12.85
2023-07-03T02:11:01.548Z,11.10
2023-07-03T02:11:36.558Z,11.65
2023-07-03T02:12:11.227Z,13.63
2023-07-03T02:12:46.045Z,12.20
2023-07-03T02:13:23.158Z,9.05
2023-07-03T02:13:57.630Z,9.35
2023-07-03T02:14:35.969Z,11.57
2023-07-03T02:15:12.760Z,9.80
2023-07-03T02:15:45.068Z,15.30
2023-07-03T02:16:17.509Z,10.65
2023-07-03T02:16:50.162Z,18.35
2023-07-03T02:17:25.173Z,11.60
2023-07-03T02:17:58.489Z,12.07
2023-07-03T02:18:31.701Z,16.63
2023-07-03T02:19:07.166Z,12.50
2023-07-03T02:19:39.696Z,11.35
2023-07-03T02:20:15.758Z,16.80
2023-07-03T02:20:58.258Z,20.05
2023-07-03T02:21:30.616Z,30.15
2023-07-03T02:22:02.984Z,15.73
2023-07-03T02:22:40.038Z,12.00
2023-07-03T02:23:13.747Z,29.02
2023-07-03T02:23:48.829Z,18.05
2023-07-03T02:24:23.748Z,19.08
2023-07-03T02:24:57.243Z,13.18
2023-07-03T02:25:32.676Z,14.70
2023-07-03T02:26:07.525Z,14.32
2023-07-03T02:26:39.808Z,17.77
2023-07-03T02:27:12.014Z,18.60
2023-07-03T02:27:44.628Z,13.10
2023-07-03T02:28:19.479Z,18.38
2023-07-03T02:28:52.268Z,10.05
2023-07-03T02:29:24.474Z,13.70
2023-07-03T02:29:56.738Z,16.13
2023-07-03T02:30:31.644Z,12.63
2023-07-03T02:31:04.447Z,12.63
2023-07-03T02:31:36.822Z,12.23
2023-07-03T02:32:13.701Z,12.27
2023-07-03T02:32:47.545Z,13.57
2023-07-03T02:33:19.913Z,29.63
2023-07-03T02:33:52.134Z,28.60
2023-07-03T02:34:26.951Z,20.05
2023-07-03T02:34:59.228Z,11.32
2023-07-03T02:35:31.465Z,15.27
2023-07-03T02:36:06.925Z,19.20
2023-07-03T02:36:40.809Z,10.32
2023-07-03T02:37:15.288Z,13.40
2023-07-03T02:37:50.226Z,14.88
2023-07-03T02:38:22.422Z,21.92
2023-07-03T02:38:54.800Z,12.50
2023-07-03T02:39:29.714Z,11.32
2023-07-03T02:40:02.951Z,9.98
2023-07-03T02:40:38.888Z,18.63
2023-07-03T02:41:14.521Z,21.65
2023-07-03T02:41:46.801Z,12.68
2023-07-03T02:42:19.080Z,23.35
2023-07-03T02:42:51.784Z,12.50
2023-07-03T02:43:27.411Z,18.80
2023-07-03T02:44:01.380Z,14.65
2023-07-03T02:44:36.227Z,18.05
2023-07-03T02:45:12.060Z,23.15
2023-07-03T02:45:44.347Z,16.70
2023-07-03T02:46:17.832Z,14.98
2023-07-03T02:46:52.705Z,12.70
2023-07-03T02:47:25.483Z,36.53
2023-07-03T02:47:58.709Z,22.10
2023-07-03T02:48:33.786Z,21.02
2023-07-03T02:49:06.044Z,19.13
2023-07-03T02:49:38.270Z,25.10
2023-07-03T02:50:15.519Z,19.88
2023-07-03T02:50:52.209Z,30.40
2023-07-03T02:51:24.679Z,18.95
2023-07-03T02:52:02.533Z,20.75
2023-07-03T02:52:37.800Z,21.75
2023-07-03T02:53:12.247Z,21.45
2023-07-03T02:53:48.766Z,20.67
2023-07-03T02:54:22.191Z,22.27
2023-07-03T02:54:54.394Z,31.70
2023-07-03T02:55:29.563Z,19.90
2023-07-03T02:56:04.788Z,22.58
2023-07-03T02:56:38.084Z,15.43
2023-07-03T02:57:12.941Z,21.83
2023-07-03T02:57:45.248Z,20.00
2023-07-03T02:58:19.177Z,24.42
2023-07-03T02:58:54.239Z,21.70
2023-07-03T02:59:31.719Z,19.95
2023-07-03T03:00:07.241Z,26.33
2023-07-03T03:00:42.129Z,21.15
2023-07-03T03:01:14.545Z,17.83
2023-07-03T03:01:46.920Z,26.80
2023-07-03T03:02:22.941Z,17.33
2023-07-03T03:02:55.771Z,21.50
2023-07-03T03:03:28.416Z,12.63
2023-07-03T03:04:04.095Z,21.95
2023-07-03T03:04:36.836Z,18.30
2023-07-03T03:05:10.796Z,16.63
2023-07-03T03:05:46.424Z,16.92
2023-07-03T03:06:18.683Z,22.05
2023-07-03T03:06:53.564Z,25.27
2023-07-03T03:07:25.947Z,25.65
2023-07-03T03:07:58.438Z,15.48
2023-07-03T03:08:30.726Z,15.38
2023-07-03T03:09:06.460Z,24.35
2023-07-03T03:09:40.213Z,18.92
2023-07-03T03:10:12.769Z,21.55
2023-07-03T03:10:47.610Z,11.75
2023-07-03T03:11:22.520Z,20.98
2023-07-03T03:11:58.371Z,32.20
2023-07-03T03:12:33.288Z,18.05
2023-07-03T03:13:06.015Z,17.92
2023-07-03T03:13:39.551Z,18.30
2023-07-03T03:14:12.003Z,25.10
2023-07-03T03:14:46.819Z,23.45
2023-07-03T03:15:19.278Z,21.25
2023-07-03T03:15:52.907Z,22.92
2023-07-03T03:16:28.047Z,30.67
2023-07-03T03:17:00.414Z,14.40
2023-07-03T03:17:32.677Z,15.40
2023-07-03T03:18:07.815Z,20.10
2023-07-03T03:18:40.268Z,20.02
2023-07-03T03:19:12.572Z,18.92
2023-07-03T03:19:47.902Z,24.85
2023-07-03T03:20:20.190Z,24.73
2023-07-03T03:20:52.733Z,17.08
2023-07-03T03:21:27.632Z,18.70
2023-07-03T03:22:00.124Z,17.42
2023-07-03T03:22:32.435Z,15.82
2023-07-03T03:23:07.263Z,15.88
2023-07-03T03:23:39.486Z,22.05
2023-07-03T03:24:11.849Z,21.38
2023-07-03T03:25:06.806Z,15.25
2023-07-03T03:26:57.223Z,23.50
2023-07-03T03:27:29.595Z,24.33
2023-07-03T03:28:01.821Z,21.63
2023-07-03T03:28:36.757Z,28.98
2023-07-03T03:29:10.220Z,35.13
2023-07-03T03:29:43.575Z,29.70
2023-07-03T03:30:18.708Z,67.25
2023-07-03T03:30:52.290Z,32.30
2023-07-03T03:31:24.708Z,36.63
2023-07-03T03:32:08.561Z,23.40
2023-07-03T03:32:42.073Z,25.05
2023-07-03T03:33:14.822Z,28.48
2023-07-03T03:33:49.643Z,27.67
2023-07-03T03:34:21.883Z,40.53
2023-07-03T03:34:54.221Z,33.10
2023-07-03T03:35:29.012Z,26.98
2023-07-03T03:36:01.340Z,22.98
2023-07-03T03:36:40.095Z,28.40
2023-07-03T03:37:13.456Z,31.88
2023-07-03T03:37:46.060Z,54.42
2023-07-03T03:38:20.870Z,81.20
2023-07-03T03:38:53.161Z,51.17
2023-07-03T03:39:25.713Z,39.53
2023-07-03T03:40:00.725Z,33.65
2023-07-03T03:40:33.066Z,46.20
2023-07-03T03:41:06.081Z,49.38
2023-07-03T03:41:46.069Z,43.53
2023-07-03T03:42:20.902Z,47.15
2023-07-03T03:42:53.349Z,50.13
2023-07-03T03:43:28.678Z,32.10
2023-07-03T03:44:00.981Z,17.65
2023-07-03T03:44:33.365Z,18.60
2023-07-03T03:45:07.479Z,34.83
2023-07-03T03:45:42.595Z,29.75
2023-07-03T03:46:14.936Z,41.70
2023-07-03T03:46:47.236Z,27.23
2023-07-03T03:47:24.396Z,25.02
2023-07-03T03:47:57.217Z,39.08
2023-07-03T03:48:31.840Z,42.35
2023-07-03T03:49:07.649Z,35.95
2023-07-03T03:49:40.713Z,25.17
2023-07-03T03:50:13.509Z,25.48
2023-07-03T03:50:47.861Z,41.72
2023-07-03T03:51:22.669Z,49.53
2023-07-03T03:51:55.564Z,41.55
2023-07-03T03:52:28.463Z,36.35
2023-07-03T03:53:03.634Z,44.15
2023-07-03T03:53:36.125Z,28.27
2023-07-03T03:54:09.088Z,41.45
2023-07-03T03:54:44.043Z,46.47
2023-07-03T03:55:16.536Z,40.00
2023-07-03T03:55:51.088Z,42.15
2023-07-03T03:56:26.436Z,35.15
2023-07-03T03:56:58.896Z,42.97
2023-07-03T03:57:33.936Z,38.97
2023-07-03T03:58:07.142Z,49.15
2023-07-03T03:58:43.331Z,47.15
2023-07-03T03:59:15.850Z,55.30
2023-07-03T03:59:48.100Z,34.22
2023-07-03T04:00:24.021Z,53.80
2023-07-03T04:00:56.229Z,35.28
2023-07-03T04:01:29.282Z,28.98
2023-07-03T04:02:04.563Z,29.13
2023-07-03T04:02:36.845Z,46.72
2023-07-03T04:03:09.159Z,42.25
2023-07-03T04:03:46.447Z,36.97
2023-07-03T04:04:19.329Z,56.10
2023-07-03T04:04:51.692Z,47.65
2023-07-03T04:05:23.917Z,34.50
2023-07-03T04:05:58.859Z,33.55
2023-07-03T04:06:31.290Z,43.22
2023-07-03T04:07:04.572Z,47.65
2023-07-03T04:07:40.425Z,38.78
2023-07-03T04:08:12.802Z,38.40
2023-07-03T04:08:45.151Z,46.10
2023-07-03T04:09:19.954Z,54.55
2023-07-03T04:09:52.258Z,46.05
2023-07-03T04:10:24.449Z,60.38
2023-07-03T04:10:59.819Z,22.55
2023-07-03T04:11:33.114Z,39.85
2023-07-03T04:12:06.616Z,54.13
2023-07-03T04:12:44.031Z,51.42
2023-07-03T04:13:16.311Z,63.22
2023-07-03T04:13:48.620Z,61.88
2023-07-03T04:14:23.479Z,48.35
2023-07-03T04:14:55.662Z,70.63
2023-07-03T04:15:32.775Z,63.17
2023-07-03T04:16:08.335Z,93.55
2023-07-03T04:16:40.746Z,108.00
2023-07-03T04:17:13.103Z,99.57
2023-07-03T04:17:45.367Z,135.27
2023-07-03T04:18:20.200Z,96.55
2023-07-03T04:18:52.521Z,102.28
2023-07-03T04:19:25.040Z,105.45
2023-07-03T04:19:59.981Z,108.25
2023-07-03T04:20:33.859Z,88.03
2023-07-03T04:21:06.227Z,89.45
2023-07-03T04:21:41.678Z,76.80
2023-07-03T04:22:13.935Z,69.78
2023-07-03T04:22:46.506Z,90.13
2023-07-03T04:23:19.301Z,77.88
2023-07-03T04:23:54.320Z,62.25
2023-07-03T04:24:26.598Z,71.28
2023-07-03T04:24:58.879Z,67.72
2023-07-03T04:25:33.775Z,74.30
2023-07-03T04:26:06.176Z,52.15
2023-07-03T04:26:41.912Z,37.03
2023-07-03T04:27:17.693Z,42.90
2023-07-03T04:27:54.083Z,37.83
2023-07-03T04:28:26.790Z,65.03
2023-07-03T04:29:03.650Z,57.95
2023-07-03T04:29:37.445Z,37.22
2023-07-03T04:30:12.166Z,45.58
2023-07-03T04:30:47.902Z,33.78
2023-07-03T04:31:21.871Z,51.15
2023-07-03T04:31:55.695Z,38.50
2023-07-03T04:32:34.439Z,31.33
2023-07-03T04:33:09.250Z,22.42
2023-07-03T04:33:44.029Z,54.78
2023-07-03T04:34:19.602Z,47.58
2023-07-03T04:34:52.967Z,40.40
2023-07-03T04:35:26.224Z,47.17
2023-07-03T04:36:02.250Z,54.58
2023-07-03T04:36:35.091Z,42.63
2023-07-03T04:37:08.225Z,42.28
2023-07-03T04:37:43.976Z,54.13
2023-07-03T04:38:19.163Z,53.75
2023-07-03T04:38:58.481Z,59.55
2023-07-03T04:39:34.110Z,73.05
2023-07-03T04:40:10.101Z,55.30
2023-07-03T04:40:43.856Z,50.50
2023-07-03T04:41:19.719Z,81.93
2023-07-03T04:41:51.956Z,115.85
2023-07-03T04:42:24.592Z,111.50
2023-07-03T04:43:01.978Z,90.22
2023-07-03T04:43:34.218Z,63.40
2023-07-03T04:44:07.771Z,64.00
2023-07-03T04:44:40.064Z,74.38
2023-07-03T04:45:17.010Z,96.90
2023-07-03T04:45:51.668Z,53.92
2023-07-03T04:46:26.930Z,64.38
2023-07-03T04:47:06.316Z,62.10
2023-07-03T04:48:02.153Z,64.45
2023-07-03T04:48:37.101Z,83.25
2023-07-03T04:49:09.374Z,81.45
2023-07-03T04:49:41.743Z,51.47
2023-07-03T04:50:17.601Z,89.28
2023-07-03T04:50:50.980Z,84.68
2023-07-03T04:51:23.336Z,78.03
2023-07-03T04:51:59.803Z,64.82
2023-07-03T04:52:32.166Z,59.15
2023-07-03T04:53:05.159Z,96.95
2023-07-03T04:53:43.466Z,77.25
2023-07-03T04:54:15.673Z,70.13
2023-07-03T04:54:47.939Z,87.97
2023-07-03T04:55:22.960Z,91.93
2023-07-03T04:55:55.440Z,95.35
2023-07-03T04:56:28.664Z,70.00
2023-07-03T04:57:03.200Z,91.65
2023-07-03T04:57:38.130Z,86.45
2023-07-03T04:58:13.075Z,72.63
2023-07-03T04:58:49.158Z,78.47
2023-07-03T04:59:21.664Z,90.68
2023-07-03T04:59:56.290Z,81.00
2023-07-03T05:00:31.584Z,93.25
2023-07-03T05:01:06.308Z,109.55
2023-07-03T05:01:38.692Z,68.70
2023-07-03T05:02:13.837Z,104.50
2023-07-03T05:02:47.371Z,85.13
2023-07-03T05:03:19.977Z,96.57
2023-07-03T05:03:55.069Z,93.72
2023-07-03T05:04:27.346Z,85.47
2023-07-03T05:04:59.705Z,98.10
2023-07-03T05:05:34.718Z,101.53
2023-07-03T05:06:06.990Z,77.75
2023-07-03T05:06:40.449Z,68.75
2023-07-03T05:07:15.248Z,75.38
2023-07-03T05:07:47.789Z,83.70
2023-07-03T05:08:20.065Z,92.75
2023-07-03T05:08:54.905Z,78.65
2023-07-03T05:09:27.425Z,68.97
2023-07-03T05:09:59.684Z,78.68
2023-07-03T05:10:32.176Z,77.35
2023-07-03T05:11:07.001Z,91.65
2023-07-03T05:11:39.237Z,65.43
2023-07-03T05:12:11.862Z,91.80
2023-07-03T05:12:47.251Z,95.85
2023-07-03T05:13:22.129Z,65.88
2023-07-03T05:13:54.355Z,65.30
2023-07-03T05:14:29.373Z,69.45
2023-07-03T05:15:02.021Z,64.43
2023-07-03T05:15:34.366Z,52.35
2023-07-03T05:16:09.467Z,61.80
2023-07-03T05:16:41.754Z,33.75
2023-07-03T05:17:14.404Z,35.03
2023-07-03T05:17:53.272Z,75.35
2023-07-03T05:18:25.872Z,57.75
2023-07-03T05:18:58.284Z,63.38
2023-07-03T05:19:33.166Z,83.55
2023-07-03T05:20:07.615Z,71.57
2023-07-03T05:20:39.910Z,63.70
2023-07-03T05:21:14.773Z,51.90
2023-07-03T05:21:46.978Z,109.32
2023-07-03T05:22:19.199Z,87.13
2023-07-03T05:22:54.121Z,64.32
2023-07-03T05:23:26.502Z,67.75
2023-07-03T05:23:58.783Z,74.15
2023-07-03T05:24:33.568Z,79.63
2023-07-03T05:25:07.625Z,82.05
2023-07-03T05:25:42.533Z,57.13
2023-07-03T05:26:14.872Z,95.82
2023-07-03T05:26:47.152Z,84.03
2023-07-03T05:27:21.974Z,59.50
2023-07-03T05:27:54.226Z,64.22
2023-07-03T05:28:29.008Z,72.30
2023-07-03T05:29:03.842Z,79.50
2023-07-03T05:29:36.094Z,88.45
2023-07-03T05:30:10.221Z,99.78
2023-07-03T05:30:45.070Z,94.28
2023-07-03T05:31:17.855Z,82.32
2023-07-03T05:31:50.326Z,94.88
2023-07-03T05:32:25.314Z,92.55
2023-07-03T05:32:57.698Z,113.03
2023-07-03T05:33:33.645Z,130.35
2023-07-03T05:34:05.998Z,121.25
2023-07-03T05:34:39.972Z,135.85
2023-07-03T05:35:15.023Z,101.25
2023-07-03T05:35:51.038Z,73.22
2023-07-03T05:36:27.045Z,78.15
2023-07-03T05:37:01.956Z,72.85
2023-07-03T05:37:35.457Z,76.78
2023-07-03T05:38:07.735Z,96.43
2023-07-03T05:38:42.551Z,81.20
2023-07-03T05:39:14.806Z,92.18
2023-07-03T05:39:48.551Z,90.15
2023-07-03T05:40:23.694Z,88.13
2023-07-03T05:40:56.283Z,92.57
2023-07-03T05:41:28.517Z,74.90
2023-07-03T05:42:03.327Z,78.05
2023-07-03T05:42:36.362Z,131.80
2023-07-03T05:43:11.259Z,56.45
2023-07-03T05:43:46.057Z,58.15
2023-07-03T05:44:18.454Z,83.70
2023-07-03T05:44:53.945Z,76.38
2023-07-03T05:45:26.304Z,90.85
2023-07-03T05:45:58.722Z,113.30
2023-07-03T05:46:33.539Z,105.15
2023-07-03T05:47:18.500Z,81.35
2023-07-03T05:47:50.888Z,86.00
2023-07-03T05:48:25.916Z,102.40
2023-07-03T05:48:58.222Z,97.30
2023-07-03T05:50:25.592Z,86.85
2023-07-03T05:51:03.627Z,98.18
2023-07-03T05:51:35.922Z,98.10
2023-07-03T05:52:12.596Z,79.45
2023-07-03T05:52:45.644Z,92.57
2023-07-03T05:53:22.593Z,105.97
2023-07-03T05:53:56.654Z,78.72
2023-07-03T05:54:28.888Z,114.93
2023-07-03T05:55:03.964Z,119.38
2023-07-03T05:55:36.336Z,89.20
2023-07-03T05:56:11.416Z,82.63
2023-07-03T05:56:44.462Z,71.60
2023-07-03T05:58:44.664Z,83.65
2023-07-03T05:59:19.474Z,55.35
2023-07-03T05:59:52.089Z,70.03
2023-07-03T06:00:28.674Z,45.92
2023-07-03T06:01:01.579Z,46.22
2023-07-03T06:01:33.980Z,57.03
2023-07-03T06:02:11.966Z,90.32
2023-07-03T06:02:45.507Z,93.05
2023-07-03T06:03:21.334Z,74.82
2023-07-03T06:03:53.605Z,83.22
2023-07-03T06:04:26.640Z,59.10
2023-07-03T06:05:01.616Z,91.40
2023-07-03T06:05:34.275Z,50.78
2023-07-03T06:06:07.530Z,41.75
2023-07-03T06:06:42.402Z,47.60
2023-07-03T06:07:14.883Z,36.17
2023-07-03T06:07:47.446Z,31.67
2023-07-03T06:08:22.456Z,80.90
2023-07-03T06:08:54.763Z,55.40
2023-07-03T06:09:29.494Z,96.70
2023-07-03T06:10:04.749Z,78.63
2023-07-03T06:10:37.052Z,41.35
2023-07-03T06:11:10.055Z,29.73
2023-07-03T06:11:44.919Z,26.00
2023-07-03T06:12:17.294Z,96.38
2023-07-03T06:12:49.542Z,41.00
2023-07-03T06:13:24.410Z,52.55
2023-07-03T06:13:56.737Z,53.38
2023-07-03T06:14:33.379Z,44.10
2023-07-03T06:15:09.817Z,26.60
2023-07-03T06:15:42.133Z,57.80
2023-07-03T06:16:16.701Z,45.17
2023-07-03T06:16:53.306Z,73.45
2023-07-03T06:17:26.419Z,72.13
2023-07-03T06:18:03.252Z,99.13
2023-07-03T06:18:35.462Z,90.45
2023-07-03T06:19:07.717Z,40.33
2023-07-03T06:19:42.611Z,50.97
2023-07-03T06:20:15.284Z,81.53
2023-07-03T06:20:48.093Z,50.72
2023-07-03T06:21:22.863Z,57.58
2023-07-03T06:21:55.624Z,80.38
2023-07-03T06:22:28.001Z,69.47
2023-07-03T06:23:02.850Z,74.07
2023-07-03T06:23:35.034Z,105.75
2023-07-03T06:24:09.959Z,42.40
2023-07-03T06:24:44.817Z,48.75
2023-07-03T06:25:17.286Z,96.18
2023-07-03T06:25:49.685Z,94.13
2023-07-03T06:26:24.861Z,87.28
2023-07-03T06:26:58.587Z,111.30
2023-07-03T06:27:33.452Z,90.47
2023-07-03T06:28:06.362Z,98.50
2023-07-03T06:28:38.688Z,41.78
2023-07-03T06:29:16.083Z,82.30
2023-07-03T06:29:51.072Z,34.60
2023-07-03T06:30:23.407Z,32.67
2023-07-03T06:30:58.323Z,126.80
2023-07-03T06:31:30.709Z,102.85
2023-07-03T06:32:03.040Z,63.80
2023-07-03T06:32:37.958Z,91.43
2023-07-03T06:33:10.321Z,101.70
2023-07-03T06:33:42.686Z,129.40
2023-07-03T06:34:17.475Z,90.60
2023-07-03T06:34:49.789Z,63.53
2023-07-03T06:35:22.134Z,70.13
2023-07-03T06:35:57.032Z,80.72
2023-07-03T06:36:29.525Z,51.00
2023-07-03T06:37:04.228Z,67.85
2023-07-03T06:37:39.241Z,84.90
2023-07-03T06:38:11.497Z,58.40
2023-07-03T06:38:43.777Z,60.03
2023-07-03T06:39:18.973Z,64.03
2023-07-03T06:39:51.191Z,78.15
2023-07-03T06:40:26.789Z,63.40
2023-07-03T06:41:00.117Z,73.63
2023-07-03T06:41:35.836Z,99.15
2023-07-03T06:42:11.442Z,76.93
2023-07-03T06:42:48.125Z,52.17
2023-07-03T06:43:24.566Z,56.50
2023-07-03T06:43:59.740Z,76.97
2023-07-03T06:44:31.981Z,37.63
2023-07-03T06:45:10.897Z,100.32
2023-07-03T06:45:43.125Z,45.38
2023-07-03T06:46:16.288Z,30.73
2023-07-03T06:46:52.424Z,39.50
2023-07-03T06:47:24.779Z,37.20
2023-07-03T06:47:57.742Z,84.10
2023-07-03T06:48:32.793Z,78.22
2023-07-03T06:49:05.446Z,54.45
2023-07-03T06:49:38.155Z,37.88
2023-07-03T06:50:13.748Z,36.85
2023-07-03T06:50:46.013Z,105.70
2023-07-03T06:51:18.223Z,90.95
2023-07-03T06:51:53.087Z,78.00
2023-07-03T06:52:25.458Z,71.75
2023-07-03T06:53:00.210Z,56.05
2023-07-03T06:53:33.018Z,57.58
2023-07-03T06:54:05.667Z,68.15
2023-07-03T06:54:40.498Z,88.68
2023-07-03T06:55:13.004Z,124.43
2023-07-03T06:55:45.201Z,71.70
2023-07-03T06:56:23.561Z,63.80
2023-07-03T06:56:55.779Z,39.08
2023-07-03T06:57:28.037Z,83.95
2023-07-03T06:58:04.404Z,60.50
2023-07-03T06:58:36.869Z,63.72
2023-07-03T06:59:09.202Z,35.65
2023-07-03T06:59:44.004Z,23.02
2023-07-03T07:00:19.989Z,59.20
2023-07-03T07:00:52.611Z,34.92
2023-07-03T07:01:35.372Z,51.38
2023-07-03T07:02:08.004Z,40.78
2023-07-03T07:02:40.512Z,72.65
2023-07-03T07:03:15.430Z,30.88
2023-07-03T07:03:48.056Z,47.63
2023-07-03T07:04:20.479Z,76.18
2023-07-03T07:05:00.041Z,55.63
2023-07-03T07:05:55.861Z,39.03
2023-07-03T07:06:33.957Z,81.45
2023-07-03T07:07:16.597Z,17.38
2023-07-03T07:07:49.006Z,56.50
2023-07-03T07:11:00.513Z,55.83
2023-07-03T07:11:36.218Z,46.65
2023-07-03T07:12:11.615Z,47.55
2023-07-03T07:12:43.824Z,14.20
2023-07-03T07:13:16.192Z,24.27
2023-07-03T07:13:53.457Z,64.10
2023-07-03T07:14:40.792Z,64.90
2023-07-03T07:15:13.005Z,54.67
2023-07-03T07:15:50.633Z,50.58
2023-07-03T07:16:25.223Z,30.70
2023-07-03T07:16:58.967Z,23.90
2023-07-03T07:19:29.401Z,60.97
2023-07-03T07:20:01.885Z,99.43
2023-07-03T07:20:37.634Z,58.85
2023-07-03T07:21:12.744Z,100.32
2023-07-03T07:21:45.324Z,90.18
2023-07-03T07:22:20.089Z,94.70
2023-07-03T07:22:52.470Z,85.68
2023-07-03T07:23:24.767Z,86.28
2023-07-03T07:24:01.756Z,93.00
2023-07-03T07:24:34.095Z,92.63
2023-07-03T07:25:06.903Z,95.93
2023-07-03T07:25:41.740Z,69.28
2023-07-03T07:26:14.008Z,75.63
2023-07-03T07:26:49.893Z,73.55
2023-07-03T07:27:22.112Z,65.38
2023-07-03T07:27:54.314Z,68.90
2023-07-03T07:28:29.113Z,61.67
2023-07-03T07:29:01.400Z,45.72
2023-07-03T07:29:36.835Z,58.15
2023-07-03T07:30:10.483Z,69.40
2023-07-03T07:30:42.680Z,72.90
2023-07-03T07:31:25.775Z,63.58
2023-07-03T07:31:58.844Z,57.92
2023-07-03T07:32:33.916Z,86.85
2023-07-03T07:33:06.215Z,83.97
2023-07-03T07:33:41.023Z,69.68
2023-07-03T07:34:13.669Z,70.72
2023-07-03T07:34:45.935Z,61.63
2023-07-03T07:35:21.399Z,66.28
2023-07-03T07:35:53.803Z,64.35
2023-07-03T07:36:27.741Z,65.03
2023-07-03T07:37:02.842Z,48.08
2023-07-03T07:37:35.065Z,56.97
2023-07-03T07:38:07.294Z,39.20